createdAt,value
2018-06-29T00:00:03.481Z,101278.77
2018-06-29T00:02:32.166Z,101275.28
2018-06-29T00:05:00.693Z,101278.90
2018-06-29T00:07:29.195Z,101289.98
2018-06-29T00:09:57.696Z,101289.77
2018-06-29T00:12:26.211Z,101294.48
2018-06-29T00:14:54.752Z,101290.48
2018-06-29T00:17:23.234Z,101290.87
2018-06-29T00:19:51.785Z,101304.02
2018-06-29T00:22:20.307Z,101308.39
2018-06-29T00:24:48.814Z,101320.42
2018-06-29T00:27:17.381Z,101316.19
2018-06-29T00:29:45.888Z,101310.83
2018-06-29T00:32:14.466Z,101311.58
2018-06-29T00:34:43.130Z,101311.58
2018-06-29T00:37:11.715Z,101323.98
2018-06-29T00:39:40.215Z,101327.41
2018-06-29T00:42:08.794Z,101329.09
2018-06-29T00:44:37.356Z,101332.13
2018-06-29T00:47:06.134Z,101327.17
2018-06-29T00:49:34.665Z,101339.57
2018-06-29T00:52:03.177Z,101339.80
2018-06-29T00:54:31.724Z,101335.43
2018-06-29T00:57:00.271Z,101336.38
2018-06-29T00:59:28.854Z,101347.30
2018-06-29T01:01:57.437Z,101332.34
2018-06-29T01:04:26.127Z,101329.90
2018-06-29T01:06:54.639Z,101341.69
2018-06-29T01:09:23.131Z,101342.50
2018-06-29T01:11:51.665Z,101343.19
2018-06-29T01:14:20.186Z,101360.33
2018-06-29T01:16:48.784Z,101356.07
2018-06-29T01:19:17.372Z,101352.28
2018-06-29T01:21:45.946Z,101364.65
2018-06-29T01:24:14.683Z,101370.22
2018-06-29T01:26:43.190Z,101370.33
2018-06-29T01:29:11.673Z,101372.58
2018-06-29T01:31:40.243Z,101371.97
2018-06-29T01:34:08.871Z,101371.80
2018-06-29T01:36:37.447Z,101376.13
2018-06-29T01:39:07.916Z,101378.08
2018-06-29T01:41:36.653Z,101379.85
2018-06-29T01:44:05.242Z,101377.58
2018-06-29T01:46:33.801Z,101391.27
2018-06-29T01:49:02.342Z,101381.27
2018-06-29T01:51:30.897Z,101400.94
2018-06-29T01:53:59.518Z,101411.84
2018-06-29T01:56:28.103Z,101412.63
2018-06-29T01:58:56.689Z,101413.81
2018-06-29T02:01:25.268Z,101428.16
2018-06-29T02:03:53.758Z,101419.84
2018-06-29T02:06:22.271Z,101416.83
2018-06-29T02:08:50.840Z,101432.61
2018-06-29T02:11:19.419Z,101458.78
2018-06-29T02:13:47.930Z,101441.02
2018-06-29T02:16:16.444Z,101459.14
2018-06-29T02:18:44.988Z,101457.08
2018-06-29T02:21:13.571Z,101443.87
2018-06-29T02:23:42.090Z,101456.61
2018-06-29T02:26:10.700Z,101456.28
2018-06-29T02:28:39.300Z,101448.41
2018-06-29T02:31:07.811Z,101456.12
2018-06-29T02:33:36.323Z,101461.86
2018-06-29T02:36:04.858Z,101467.31
2018-06-29T02:38:33.433Z,101465.39
2018-06-29T02:41:02.072Z,101469.78
2018-06-29T02:43:30.666Z,101469.98
2018-06-29T02:45:59.275Z,101479.05
2018-06-29T02:48:27.884Z,101473.05
2018-06-29T02:50:56.518Z,101488.82
2018-06-29T02:53:25.151Z,101497.00
2018-06-29T02:55:53.743Z,101493.78
2018-06-29T02:58:22.370Z,101486.53
2018-06-29T03:00:50.951Z,101490.72
2018-06-29T03:03:19.479Z,101498.98
2018-06-29T03:05:48.117Z,101495.67
2018-06-29T03:08:16.702Z,101499.41
2018-06-29T03:10:45.231Z,101497.90
2018-06-29T03:13:13.807Z,101497.30
2018-06-29T03:15:42.447Z,101498.35
2018-06-29T03:18:11.032Z,101510.05
2018-06-29T03:20:39.720Z,101515.94
2018-06-29T03:23:08.299Z,101509.64
2018-06-29T03:25:36.827Z,101514.97
2018-06-29T03:28:05.521Z,101514.19
2018-06-29T03:30:34.051Z,101503.34
2018-06-29T03:33:02.614Z,101507.25
2018-06-29T03:35:31.059Z,101519.32
2018-06-29T03:37:59.695Z,101515.69
2018-06-29T03:40:28.337Z,101512.84
2018-06-29T03:42:56.786Z,101508.85
2018-06-29T03:45:25.344Z,101513.80
2018-06-29T03:47:53.838Z,101523.86
2018-06-29T03:50:22.331Z,101524.27
2018-06-29T03:52:50.827Z,101515.31
2018-06-29T03:55:19.383Z,101522.14
2018-06-29T03:57:48.011Z,101521.55
2018-06-29T04:00:16.540Z,101519.29
2018-06-29T04:02:45.206Z,101522.88
2018-06-29T04:05:13.801Z,101521.55
2018-06-29T04:07:42.330Z,101524.30
2018-06-29T04:10:10.913Z,101529.16
2018-06-29T04:12:39.393Z,101527.63
2018-06-29T04:15:08.232Z,101530.66
2018-06-29T04:17:36.779Z,101519.41
2018-06-29T04:20:06.110Z,101524.98
2018-06-29T04:22:34.806Z,101526.13
2018-06-29T04:25:04.894Z,101519.29
2018-06-29T04:27:34.224Z,101519.55
2018-06-29T04:30:03.518Z,101523.45
2018-06-29T04:32:32.025Z,101521.34
2018-06-29T04:35:00.645Z,101524.97
2018-06-29T04:37:29.267Z,101528.00
2018-06-29T04:39:58.546Z,101513.88
2018-06-29T04:42:27.095Z,101528.83
2018-06-29T04:44:55.734Z,101524.48
2018-06-29T04:47:24.314Z,101525.27
2018-06-29T04:49:52.916Z,101523.48
2018-06-29T04:52:21.480Z,101523.23
2018-06-29T04:54:49.978Z,101518.91
2018-06-29T04:57:18.515Z,101512.33
2018-06-29T04:59:47.107Z,101520.05
2018-06-29T05:02:15.659Z,101527.85
2018-06-29T05:04:44.189Z,101514.34
2018-06-29T05:07:12.773Z,101518.14
2018-06-29T05:09:41.359Z,101528.53
2018-06-29T05:12:09.941Z,101510.14
2018-06-29T05:14:38.569Z,101505.20
2018-06-29T05:17:07.309Z,101517.37
2018-06-29T05:19:36.404Z,101519.66
2018-06-29T05:22:04.971Z,101510.89
2018-06-29T05:24:33.572Z,101511.66
2018-06-29T05:27:02.070Z,101513.73
2018-06-29T05:29:30.633Z,101518.09
2018-06-29T05:31:59.279Z,101516.00
2018-06-29T05:34:27.872Z,101531.81
2018-06-29T05:36:56.367Z,101533.14
2018-06-29T05:39:24.967Z,101517.51
2018-06-29T05:41:53.548Z,101529.32
2018-06-29T05:44:22.052Z,101528.92
2018-06-29T05:46:50.670Z,101521.25
2018-06-29T05:49:19.361Z,101522.39
2018-06-29T05:51:47.805Z,101524.16
2018-06-29T05:54:16.403Z,101528.06
2018-06-29T05:56:44.915Z,101536.87
2018-06-29T05:59:13.441Z,101535.40
2018-06-29T06:01:41.983Z,101543.30
2018-06-29T06:04:10.480Z,101534.68
2018-06-29T06:06:39.070Z,101534.58
2018-06-29T06:09:09.650Z,101532.92
2018-06-29T06:11:38.284Z,101528.63
2018-06-29T06:14:07.105Z,101538.48
2018-06-29T06:16:35.859Z,101539.45
2018-06-29T06:19:19.100Z,101531.55
2018-06-29T06:21:47.620Z,101539.98
2018-06-29T06:24:16.353Z,101543.37
2018-06-29T06:26:44.911Z,101540.48
2018-06-29T06:29:13.520Z,101540.02
2018-06-29T06:31:42.051Z,101540.08
2018-06-29T06:34:10.582Z,101550.92
2018-06-29T06:36:39.165Z,101547.98
2018-06-29T06:39:10.380Z,101540.91
2018-06-29T06:41:38.937Z,101543.52
2018-06-29T06:44:07.529Z,101547.22
2018-06-29T06:46:36.076Z,101550.41
2018-06-29T06:49:04.656Z,101553.99
2018-06-29T06:51:33.325Z,101544.44
2018-06-29T06:54:01.910Z,101554.05
2018-06-29T06:56:30.492Z,101539.42
2018-06-29T06:58:58.995Z,101551.28
2018-06-29T07:01:27.500Z,101545.00
2018-06-29T07:03:55.994Z,101550.55
2018-06-29T07:06:24.502Z,101548.71
2018-06-29T07:08:53.013Z,101543.41
2018-06-29T07:11:21.734Z,101549.03
2018-06-29T07:13:50.572Z,101547.12
2018-06-29T07:16:19.105Z,101542.20
2018-06-29T07:18:47.713Z,101539.44
2018-06-29T07:21:16.321Z,101545.64
2018-06-29T07:23:45.009Z,101541.05
2018-06-29T07:26:13.667Z,101550.94
2018-06-29T07:28:42.274Z,101541.53
2018-06-29T07:31:10.921Z,101545.14
2018-06-29T07:33:39.499Z,101540.95
2018-06-29T07:36:08.075Z,101540.77
2018-06-29T07:38:36.738Z,101540.90
2018-06-29T07:41:05.392Z,101543.58
2018-06-29T07:43:34.039Z,101538.87
2018-06-29T07:46:02.591Z,101537.58
2018-06-29T07:48:31.242Z,101539.38
2018-06-29T07:50:59.928Z,101545.70
2018-06-29T07:53:28.431Z,101540.69
2018-06-29T07:55:56.935Z,101542.64
2018-06-29T07:58:25.729Z,101548.92
2018-06-29T08:00:58.356Z,101556.03
2018-06-29T08:03:27.075Z,101557.37
2018-06-29T08:05:55.597Z,101551.89
2018-06-29T08:08:24.103Z,101556.23
2018-06-29T08:10:52.687Z,101548.79
2018-06-29T08:13:21.269Z,101539.39
2018-06-29T08:15:50.058Z,101541.34
2018-06-29T08:18:18.567Z,101542.90
2018-06-29T08:20:47.116Z,101536.35
2018-06-29T08:23:15.847Z,101547.36
2018-06-29T08:25:44.491Z,101534.73
2018-06-29T08:28:13.087Z,101537.83
2018-06-29T08:30:41.699Z,101538.78
2018-06-29T08:33:10.291Z,101539.31
2018-06-29T08:35:38.929Z,101526.23
2018-06-29T08:38:07.516Z,101529.73
2018-06-29T08:40:36.095Z,101527.59
2018-06-29T08:43:04.776Z,101531.27
2018-06-29T08:45:33.494Z,101531.64
2018-06-29T08:48:02.061Z,101544.98
2018-06-29T08:50:30.651Z,101536.08
2018-06-29T08:52:59.287Z,101541.95
2018-06-29T08:55:27.793Z,101539.73
2018-06-29T08:57:56.376Z,101533.09
2018-06-29T09:00:24.978Z,101532.42
2018-06-29T09:02:53.540Z,101532.84
2018-06-29T09:05:22.064Z,101531.27
2018-06-29T09:07:50.709Z,101533.49
2018-06-29T09:10:19.232Z,101529.34
2018-06-29T09:12:47.872Z,101528.79
2018-06-29T09:15:16.561Z,101529.42
2018-06-29T09:17:45.087Z,101538.25
2018-06-29T09:20:13.724Z,101537.91
2018-06-29T09:22:42.291Z,101528.17
2018-06-29T09:25:10.807Z,101519.18
2018-06-29T09:27:39.475Z,101517.25
2018-06-29T09:30:08.087Z,101523.91
2018-06-29T09:32:36.643Z,101526.72
2018-06-29T09:35:05.475Z,101526.31
2018-06-29T09:37:34.123Z,101533.38
2018-06-29T09:40:03.006Z,101509.52
2018-06-29T09:42:31.590Z,101511.97
2018-06-29T09:45:00.057Z,101519.03
2018-06-29T09:47:28.907Z,101511.02
2018-06-29T09:49:57.559Z,101514.92
2018-06-29T09:52:26.166Z,101520.28
2018-06-29T09:54:54.808Z,101520.80
2018-06-29T09:57:23.328Z,101523.71
2018-06-29T09:59:51.910Z,101518.61
2018-06-29T10:02:20.552Z,101523.00
2018-06-29T10:04:49.145Z,101513.97
2018-06-29T10:07:17.645Z,101520.31
2018-06-29T10:09:46.209Z,101520.33
2018-06-29T10:12:14.847Z,101518.63
2018-06-29T10:14:43.573Z,101516.78
2018-06-29T10:17:12.075Z,101528.00
2018-06-29T10:19:40.888Z,101521.66
2018-06-29T10:22:09.418Z,101519.83
2018-06-29T10:24:37.994Z,101524.48
2018-06-29T10:27:06.519Z,101517.26
2018-06-29T10:29:35.016Z,101511.56
2018-06-29T10:32:03.563Z,101512.28
2018-06-29T10:34:32.141Z,101520.58
2018-06-29T10:37:00.655Z,101517.77
2018-06-29T10:39:29.300Z,101516.06
2018-06-29T10:41:57.986Z,101511.56
2018-06-29T10:44:26.569Z,101510.92
2018-06-29T10:46:55.255Z,101512.65
2018-06-29T10:49:23.944Z,101511.17
2018-06-29T10:51:52.440Z,101508.83
2018-06-29T10:54:20.931Z,101505.52
2018-06-29T10:56:49.480Z,101508.08
2018-06-29T10:59:17.974Z,101504.30
2018-06-29T11:01:46.454Z,101515.38
2018-06-29T11:04:14.979Z,101509.00
2018-06-29T11:06:43.559Z,101513.12
2018-06-29T11:09:12.135Z,101519.39
2018-06-29T11:11:40.735Z,101503.39
2018-06-29T11:14:09.618Z,101503.27
2018-06-29T11:16:38.187Z,101509.48
2018-06-29T11:19:06.729Z,101490.87
2018-06-29T11:21:35.273Z,101502.86
2018-06-29T11:24:03.896Z,101500.78
2018-06-29T11:26:32.476Z,101504.56
2018-06-29T11:29:01.059Z,101495.89
2018-06-29T11:31:29.643Z,101504.30
2018-06-29T11:33:58.327Z,101505.83
2018-06-29T11:36:26.910Z,101501.03
2018-06-29T11:38:55.493Z,101505.36
2018-06-29T11:41:24.027Z,101504.58
2018-06-29T11:43:52.663Z,101496.45
2018-06-29T11:46:21.159Z,101498.77
2018-06-29T11:48:49.783Z,101495.72
2018-06-29T11:51:18.410Z,101488.66
2018-06-29T11:53:46.989Z,101502.67
2018-06-29T11:56:15.592Z,101490.33
2018-06-29T11:58:44.085Z,101494.79
2018-06-29T12:01:12.727Z,101492.70
2018-06-29T12:03:41.322Z,101484.77
2018-06-29T12:06:09.916Z,101479.15
2018-06-29T12:08:38.427Z,101482.60
2018-06-29T12:11:07.443Z,101483.06
2018-06-29T12:13:36.028Z,101480.77
2018-06-29T12:16:05.003Z,101479.03
2018-06-29T12:18:33.590Z,101476.75
2018-06-29T12:21:02.203Z,101473.05
2018-06-29T12:23:30.788Z,101481.25
2018-06-29T12:25:59.392Z,101472.69
2018-06-29T12:28:27.979Z,101476.59
2018-06-29T12:30:56.500Z,101469.09
2018-06-29T12:33:25.020Z,101468.90
2018-06-29T12:35:53.539Z,101469.91
2018-06-29T12:38:22.031Z,101478.72
2018-06-29T12:40:50.716Z,101472.11
2018-06-29T12:43:19.465Z,101466.11
2018-06-29T12:45:47.969Z,101465.98
2018-06-29T12:48:16.475Z,101463.03
2018-06-29T12:50:45.114Z,101453.53
2018-06-29T12:53:13.575Z,101449.36
2018-06-29T12:55:42.134Z,101452.25
2018-06-29T12:58:10.654Z,101454.47
2018-06-29T13:00:39.343Z,101447.44
2018-06-29T13:03:07.868Z,101450.30
2018-06-29T13:05:36.559Z,101450.50
2018-06-29T13:08:05.089Z,101446.39
2018-06-29T13:10:33.594Z,101446.36
2018-06-29T13:13:02.104Z,101450.50
2018-06-29T13:15:30.736Z,101449.20
2018-06-29T13:17:59.237Z,101453.20
2018-06-29T13:20:27.799Z,101446.67
2018-06-29T13:22:56.383Z,101442.48
2018-06-29T13:25:24.931Z,101451.63
2018-06-29T13:27:53.422Z,101439.52
2018-06-29T13:30:21.924Z,101444.42
2018-06-29T13:32:50.423Z,101449.81
2018-06-29T13:35:19.122Z,101445.69
2018-06-29T13:37:47.663Z,101442.20
2018-06-29T13:40:16.593Z,101430.86
2018-06-29T13:42:45.303Z,101421.36
2018-06-29T13:45:13.883Z,101447.31
2018-06-29T13:47:42.453Z,101429.80
2018-06-29T13:50:11.100Z,101435.69
2018-06-29T13:52:39.785Z,101425.41
2018-06-29T13:55:08.573Z,101430.56
2018-06-29T13:57:37.244Z,101416.75
2018-06-29T14:00:06.311Z,101411.39
2018-06-29T14:02:34.913Z,101400.66
2018-06-29T14:05:03.621Z,101403.58
2018-06-29T14:07:32.163Z,101405.84
2018-06-29T14:10:00.748Z,101402.13
2018-06-29T14:12:29.317Z,101400.75
2018-06-29T14:14:57.837Z,101399.06
2018-06-29T14:17:26.433Z,101388.19
2018-06-29T14:19:55.015Z,101393.23
2018-06-29T14:22:23.503Z,101382.94
2018-06-29T14:24:51.993Z,101393.61
2018-06-29T14:27:20.501Z,101391.98
2018-06-29T14:29:49.039Z,101384.03
2018-06-29T14:32:17.549Z,101386.50
2018-06-29T14:34:46.119Z,101375.95
2018-06-29T14:37:14.687Z,101373.06
2018-06-29T14:39:43.222Z,101366.23
2018-06-29T14:42:11.806Z,101374.46
2018-06-29T14:44:40.352Z,101371.23
2018-06-29T14:47:08.900Z,101376.97
2018-06-29T14:49:37.484Z,101371.77
2018-06-29T14:52:06.020Z,101372.06
2018-06-29T14:54:34.580Z,101365.77
2018-06-29T14:57:03.145Z,101377.50
2018-06-29T14:59:31.791Z,101375.39
2018-06-29T15:02:00.383Z,101367.93
2018-06-29T15:04:28.997Z,101374.24
2018-06-29T15:06:57.581Z,101382.86
2018-06-29T15:09:26.234Z,101364.72
2018-06-29T15:11:54.846Z,101370.27
2018-06-29T15:14:23.383Z,101365.44
2018-06-29T15:16:52.013Z,101363.38
2018-06-29T15:19:20.746Z,101365.24
2018-06-29T15:21:49.331Z,101361.63
2018-06-29T15:24:17.873Z,101365.41
2018-06-29T15:26:46.446Z,101363.05
2018-06-29T15:29:15.028Z,101362.99
2018-06-29T15:31:43.818Z,101361.23
2018-06-29T15:34:12.339Z,101360.30
2018-06-29T15:36:40.984Z,101373.64
2018-06-29T15:39:11.879Z,101371.00
2018-06-29T15:41:40.619Z,101361.51
2018-06-29T15:44:09.700Z,101357.80
2018-06-29T15:46:38.386Z,101358.06
2018-06-29T15:49:07.584Z,101363.17
2018-06-29T15:51:36.304Z,101359.91
2018-06-29T15:54:05.058Z,101357.18
2018-06-29T15:56:33.697Z,101358.38
2018-06-29T15:59:02.226Z,101357.98
2018-06-29T16:01:30.771Z,101370.49
2018-06-29T16:03:59.432Z,101368.02
2018-06-29T16:06:28.176Z,101362.63
2018-06-29T16:08:56.964Z,101363.77
2018-06-29T16:11:25.648Z,101362.80
2018-06-29T16:13:54.642Z,101371.18
2018-06-29T16:16:23.246Z,101373.73
2018-06-29T16:18:51.860Z,101363.20
2018-06-29T16:21:20.512Z,101366.22
2018-06-29T16:23:49.088Z,101363.67
2018-06-29T16:26:18.163Z,101365.61
2018-06-29T16:28:49.464Z,101352.88
2018-06-29T16:31:21.278Z,101358.86
2018-06-29T16:33:50.199Z,101357.06
2018-06-29T16:36:19.325Z,101364.94
2018-06-29T16:38:50.405Z,101360.30
2018-06-29T16:41:18.954Z,101358.31
2018-06-29T16:43:47.487Z,101365.31
2018-06-29T16:46:16.004Z,101367.77
2018-06-29T16:48:44.527Z,101368.40
2018-06-29T16:51:13.078Z,101369.94
2018-06-29T16:53:41.706Z,101373.99
2018-06-29T16:56:10.279Z,101373.59
2018-06-29T16:58:38.861Z,101371.58
2018-06-29T17:01:07.550Z,101372.73
2018-06-29T17:03:36.231Z,101377.59
2018-06-29T17:06:04.815Z,101376.05
2018-06-29T17:08:33.389Z,101382.84
2018-06-29T17:11:01.922Z,101381.58
2018-06-29T17:13:30.585Z,101380.44
2018-06-29T17:15:59.145Z,101381.88
2018-06-29T17:18:27.895Z,101381.88
2018-06-29T17:20:56.547Z,101379.47
2018-06-29T17:23:25.303Z,101386.98
2018-06-29T17:25:53.783Z,101382.02
2018-06-29T17:28:22.328Z,101381.48
2018-06-29T17:30:50.853Z,101391.02
2018-06-29T17:33:19.375Z,101391.41
2018-06-29T17:35:48.014Z,101380.19
2018-06-29T17:38:16.698Z,101384.58
2018-06-29T17:40:45.254Z,101380.62
2018-06-29T17:43:13.868Z,101393.72
2018-06-29T17:45:42.551Z,101388.31
2018-06-29T17:48:11.779Z,101391.72
2018-06-29T17:50:40.334Z,101389.99
2018-06-29T17:53:08.941Z,101391.91
2018-06-29T17:55:37.475Z,101396.17
2018-06-29T17:58:06.235Z,101395.41
2018-06-29T18:00:34.764Z,101399.31
2018-06-29T18:03:03.393Z,101395.59
2018-06-29T18:05:32.069Z,101402.59
2018-06-29T18:08:00.822Z,101397.63
2018-06-29T18:10:29.326Z,101402.44
2018-06-29T18:12:58.069Z,101406.69
2018-06-29T18:15:26.568Z,101409.66
2018-06-29T18:17:55.247Z,101408.42
2018-06-29T18:20:23.836Z,101406.55
2018-06-29T18:22:52.477Z,101409.73
2018-06-29T18:25:21.181Z,101414.04
2018-06-29T18:27:49.789Z,101414.86
2018-06-29T18:30:18.291Z,101409.09
2018-06-29T18:32:46.818Z,101414.69
2018-06-29T18:35:15.640Z,101418.27
2018-06-29T18:37:44.292Z,101417.19
2018-06-29T18:40:12.931Z,101422.97
2018-06-29T18:42:41.537Z,101422.53
2018-06-29T18:45:10.075Z,101427.58
2018-06-29T18:47:38.775Z,101424.70
2018-06-29T18:50:07.649Z,101429.50
2018-06-29T18:52:36.338Z,101425.73
2018-06-29T18:55:05.121Z,101427.09
2018-06-29T18:57:34.041Z,101428.00
2018-06-29T19:00:02.630Z,101421.42
2018-06-29T19:02:31.264Z,101435.67
2018-06-29T19:04:59.819Z,101427.72
2018-06-29T19:07:29.261Z,101431.18
2018-06-29T19:09:57.908Z,101432.56
2018-06-29T19:12:26.536Z,101435.28
2018-06-29T19:14:55.019Z,101428.44
2018-06-29T19:17:23.702Z,101429.20
2018-06-29T19:19:52.255Z,101431.09
2018-06-29T19:22:20.870Z,101433.06
2018-06-29T19:24:49.370Z,101435.74
2018-06-29T19:27:18.047Z,101443.82
2018-06-29T19:29:46.690Z,101442.02
2018-06-29T19:32:15.404Z,101441.42
2018-06-29T19:34:44.090Z,101444.80
2018-06-29T19:37:12.780Z,101457.14
2018-06-29T19:39:41.380Z,101452.77
2018-06-29T19:42:09.948Z,101456.31
2018-06-29T19:44:38.623Z,101459.09
2018-06-29T19:47:07.218Z,101450.44
2018-06-29T19:49:35.839Z,101454.23
2018-06-29T19:52:04.382Z,101462.02
2018-06-29T19:54:32.919Z,101462.02
2018-06-29T19:57:01.556Z,101461.51
2018-06-29T19:59:30.059Z,101463.92
2018-06-29T20:01:59.013Z,101462.89
2018-06-29T20:04:27.692Z,101466.05
2018-06-29T20:06:56.284Z,101469.54
2018-06-29T20:09:24.868Z,101470.74
2018-06-29T20:11:53.547Z,101474.70
2018-06-29T20:14:22.075Z,101474.64
2018-06-29T20:16:50.712Z,101474.83
2018-06-29T20:19:21.650Z,101479.75
2018-06-29T20:21:50.177Z,101473.39
2018-06-29T20:24:18.816Z,101474.53
2018-06-29T20:26:47.346Z,101478.20
2018-06-29T20:29:15.892Z,101476.52
2018-06-29T20:31:44.407Z,101471.88
2018-06-29T20:34:12.941Z,101474.44
2018-06-29T20:36:41.999Z,101477.17
2018-06-29T20:39:11.952Z,101474.98
2018-06-29T20:41:40.451Z,101473.91
2018-06-29T20:44:09.367Z,101475.52
2018-06-29T20:46:37.905Z,101478.04
2018-06-29T20:49:06.537Z,101481.22
2018-06-29T20:51:35.277Z,101482.30
2018-06-29T20:54:04.167Z,101482.95
2018-06-29T20:56:32.750Z,101490.96
2018-06-29T20:59:01.316Z,101494.23
2018-06-29T21:01:29.919Z,101492.77
2018-06-29T21:03:58.538Z,101492.36
2018-06-29T21:06:27.189Z,101498.28
2018-06-29T21:08:55.970Z,101502.88
2018-06-29T21:11:24.472Z,101505.75
2018-06-29T21:13:53.083Z,101504.53
2018-06-29T21:16:21.663Z,101509.94
2018-06-29T21:18:50.198Z,101512.25
2018-06-29T21:21:18.782Z,101515.58
2018-06-29T21:23:47.469Z,101512.24
2018-06-29T21:26:15.991Z,101520.33
2018-06-29T21:28:44.597Z,101518.88
2018-06-29T21:31:13.138Z,101521.53
2018-06-29T21:33:41.798Z,101526.83
2018-06-29T21:36:10.436Z,101529.48
2018-06-29T21:38:39.374Z,101533.84
2018-06-29T21:41:08.007Z,101538.75
2018-06-29T21:43:36.679Z,101540.44
2018-06-29T21:46:05.328Z,101542.13
2018-06-29T21:48:33.851Z,101538.11
2018-06-29T21:51:02.464Z,101538.93
2018-06-29T21:53:31.101Z,101543.19
2018-06-29T21:55:59.719Z,101546.00
2018-06-29T21:58:28.344Z,101553.38
2018-06-29T22:00:57.017Z,101554.67
2018-06-29T22:03:25.698Z,101559.55
2018-06-29T22:05:54.300Z,101558.77
2018-06-29T22:08:22.865Z,101560.11
2018-06-29T22:10:51.465Z,101560.45
2018-06-29T22:13:20.149Z,101560.70
2018-06-29T22:15:48.671Z,101557.51
2018-06-29T22:18:17.314Z,101552.03
2018-06-29T22:20:45.886Z,101555.59
2018-06-29T22:23:14.422Z,101557.34
2018-06-29T22:25:42.987Z,101564.23
2018-06-29T22:28:11.543Z,101565.51
2018-06-29T22:30:40.127Z,101564.17
2018-06-29T22:33:08.703Z,101557.23
2018-06-29T22:35:37.222Z,101560.59
2018-06-29T22:38:05.775Z,101561.33
2018-06-29T22:40:34.349Z,101561.23
2018-06-29T22:43:02.941Z,101560.25
2018-06-29T22:45:31.521Z,101567.59
2018-06-29T22:48:00.060Z,101566.03
2018-06-29T22:50:28.583Z,101562.90
2018-06-29T22:52:57.077Z,101565.87
2018-06-29T22:55:25.588Z,101571.33
2018-06-29T22:57:54.114Z,101572.97
2018-06-29T23:00:22.654Z,101570.23
2018-06-29T23:02:51.219Z,101573.20
2018-06-29T23:05:19.715Z,101571.30
2018-06-29T23:07:48.311Z,101568.08
2018-06-29T23:10:16.899Z,101560.27
2018-06-29T23:12:45.523Z,101560.95
2018-06-29T23:15:14.021Z,101563.75
2018-06-29T23:17:42.535Z,101565.23
2018-06-29T23:20:11.061Z,101561.86
2018-06-29T23:22:39.573Z,101559.98
2018-06-29T23:25:08.072Z,101559.34
2018-06-29T23:27:36.623Z,101560.44
2018-06-29T23:30:05.250Z,101571.19
2018-06-29T23:32:33.819Z,101560.34
2018-06-29T23:35:02.431Z,101566.31
2018-06-29T23:37:31.044Z,101564.90
2018-06-29T23:39:59.627Z,101565.56
2018-06-29T23:42:28.210Z,101561.42
2018-06-29T23:44:56.703Z,101563.88
2018-06-29T23:47:25.320Z,101571.20
2018-06-29T23:49:53.960Z,101568.83
2018-06-29T23:52:22.548Z,101572.48
2018-06-29T23:54:51.082Z,101574.03
2018-06-29T23:57:20.019Z,101572.04
2018-06-29T23:59:48.700Z,101572.31
